Sanibel, FL

6:02 PM EST on December 03, 2016 (GMT -0500)
South Yachtsman | | Change Station

Elev 13 ft 26.45 °N, 82.03 °W | Updated 6 seconds ago

Clear
Clear
74.8 °F
Feels Like 77 °F
N
0.4
Wind Variable Wind from South
Gusts 2.5 mph

Today
High -- | Low -- °F
--% Chance of Precip.
Yesterday
High -- | Low -- °F
Precip. -- in
Pressure 30.04 in
Visibility 10.0 miles
Clouds Clear
Heat Index 77 °F
Dew Point 64 °F
Humidity 69%
Rainfall 0.00 in
Snow Depth Not available.
7:00 AM 5:35 PM
Waxing Crescent, 18% visible
METAR KFMY 032253Z 07008KT 10SM CLR 24/16 A3004 RMK AO2 SLP173 T02440156
Pressure 30.04 in
Visibility 10.0 miles
Clouds Clear
Heat Index 77 °F
Dew Point 64 °F
Humidity 69%
Rainfall 0.00 in
Snow Depth Not available.
7:00 AM 5:35 PM
Waxing Crescent, 18% visible
METAR KFMY 032253Z 07008KT 10SM CLR 24/16 A3004 RMK AO2 SLP173 T02440156

10-Day Weather Forecast

Almanac

Astronomy

Dec. 03, 2016 Rise Set
Actual Time
Civil Twilight
Nautical Twilight
Astronomical Twilight
Moon
Length of Visible Light
Length of Day
Tomorrow will be .
, % of the Moon is Illuminated

Today's Extremes

State Highs State Lows

Community

WunderPhotos

Upload Photos

1,955,540 photos uploaded!

WunderBlog® & News

Nearby

Air Quality

  Air Quality AQ Index Pollutant
Not available.

Snow Depth

Station Depth Elevation

Earthquake Activity

City Distance Mag. Time & Date
Minimum magnitude displayed is 2.5.

Coastal Water Temperatures

Place Temperature

Stations

Nearby Weather Stations

Station Location Temp. Windchill Dew Point Humidity Wind Precip. Elev Updated Type
                   

Watches & Warnings

There are currently no watches in effect.